Fletcher, Ohio
Current Conditions -  °F | °C
As of 10:56 AM on Saturday 25 Oct 2014 (Local Time) from KDAY Reporting Station
Scattered Clouds Scattered Clouds  
Wind Chill: 59°   Ceiling: Unl
Heat Index: 59°   Visibility: 9mi
Dew Point: 52°   Wind: 10mph
Humidity: 78%   Direction: 210°SSW
Pressure: 29.97"   Gusts: NA
Location:  40.14°N, 84.11°W
Report Text: KDAY 251456Z 21009KT 9SM SCT033 15/11 A2997 RMK AO2 SLP147 60000 T01500111 58001
Loading
Personal Weather Stations






























Interactive Weather Map
Tropical Storm Tracking
New forecast layout! Learn more

10-Day Weather Forecast

Advertisements
Track Severe Weather on mobile